sensor_id;sensor_type;location;lat;lon;timestamp;pressure;altitude;pressure_sealevel;temperature;humidity
58373;BME280;44177;43.356;27.672;2023-01-10T00:00:08;97760.19;;;10.60;63.27
58373;BME280;44177;43.356;27.672;2023-01-10T00:02:34;97762.47;;;10.58;63.25
58373;BME280;44177;43.356;27.672;2023-01-10T00:04:59;97757.47;;;10.60;63.21
58373;BME280;44177;43.356;27.672;2023-01-10T00:07:25;97753.59;;;10.61;63.18
58373;BME280;44177;43.356;27.672;2023-01-10T00:09:50;97750.88;;;10.61;63.41
58373;BME280;44177;43.356;27.672;2023-01-10T00:12:16;97756.31;;;10.61;63.21
58373;BME280;44177;43.356;27.672;2023-01-10T00:15:00;97755.88;;;10.59;63.14
58373;BME280;44177;43.356;27.672;2023-01-10T00:17:25;97748.47;;;10.59;63.47
58373;BME280;44177;43.356;27.672;2023-01-10T00:19:51;97735.66;;;10.60;63.52
58373;BME280;44177;43.356;27.672;2023-01-10T00:22:16;97735.97;;;10.58;63.49
58373;BME280;44177;43.356;27.672;2023-01-10T00:24:45;97731.97;;;10.52;63.37
58373;BME280;44177;43.356;27.672;2023-01-10T00:27:11;97742.25;;;10.59;63.24
58373;BME280;44177;43.356;27.672;2023-01-10T00:29:44;97739.53;;;10.59;63.66
58373;BME280;44177;43.356;27.672;2023-01-10T00:32:11;97735.22;;;10.58;63.22
58373;BME280;44177;43.356;27.672;2023-01-10T00:34:36;97737.94;;;10.58;63.17
58373;BME280;44177;43.356;27.672;2023-01-10T00:37:01;97742.25;;;10.59;63.54
58373;BME280;44177;43.356;27.672;2023-01-10T00:39:27;97749.63;;;10.58;63.35
58373;BME280;44177;43.356;27.672;2023-01-10T00:41:53;97750.78;;;10.57;63.22
58373;BME280;44177;43.356;27.672;2023-01-10T00:44:37;97741.81;;;10.57;63.40
58373;BME280;44177;43.356;27.672;2023-01-10T00:47:03;97733.63;;;10.57;63.34
58373;BME280;44177;43.356;27.672;2023-01-10T00:49:28;97718.84;;;10.58;63.45
58373;BME280;44177;43.356;27.672;2023-01-10T00:51:54;97711.81;;;10.57;63.22
58373;BME280;44177;43.356;27.672;2023-01-10T00:54:22;97707.16;;;10.57;63.37
58373;BME280;44177;43.356;27.672;2023-01-10T00:56:48;97694.66;;;10.56;63.38
58373;BME280;44177;43.356;27.672;2023-01-10T00:59:13;97703.63;;;10.57;63.04
58373;BME280;44177;43.356;27.672;2023-01-10T01:01:38;97691.94;;;10.56;63.32
58373;BME280;44177;43.356;27.672;2023-01-10T01:04:04;97684.53;;;10.57;63.33
58373;BME280;44177;43.356;27.672;2023-01-10T01:06:30;97682.94;;;10.56;63.29
58373;BME280;44177;43.356;27.672;2023-01-10T01:08:55;97688.84;;;10.58;63.47
58373;BME280;44177;43.356;27.672;2023-01-10T01:11:21;97688.41;;;10.56;63.43
58373;BME280;44177;43.356;27.672;2023-01-10T01:13:46;97688.41;;;10.56;63.52
58373;BME280;44177;43.356;27.672;2023-01-10T01:16:11;97679.00;;;10.53;63.42
58373;BME280;44177;43.356;27.672;2023-01-10T01:18:37;97684.09;;;10.55;63.17
58373;BME280;44177;43.356;27.672;2023-01-10T01:21:02;97669.31;;;10.56;63.49
58373;BME280;44177;43.356;27.672;2023-01-10T01:23:32;97682.94;;;10.56;63.53
58373;BME280;44177;43.356;27.672;2023-01-10T01:25:57;97675.91;;;10.55;63.37
58373;BME280;44177;43.356;27.672;2023-01-10T01:28:23;97683.31;;;10.54;63.28
58373;BME280;44177;43.356;27.672;2023-01-10T01:30:49;97689.53;;;10.55;63.20
58373;BME280;44177;43.356;27.672;2023-01-10T01:33:15;97682.50;;;10.54;63.41
58373;BME280;44177;43.356;27.672;2023-01-10T01:35:42;97675.13;;;10.54;63.29
58373;BME280;44177;43.356;27.672;2023-01-10T01:38:07;97675.91;;;10.55;63.40
58373;BME280;44177;43.356;27.672;2023-01-10T01:40:33;97681.38;;;10.55;63.32
58373;BME280;44177;43.356;27.672;2023-01-10T01:42:58;97688.78;;;10.54;63.44
58373;BME280;44177;43.356;27.672;2023-01-10T01:45:36;97691.13;;;10.56;63.38
58373;BME280;44177;43.356;27.672;2023-01-10T01:48:11;97690.69;;;10.54;63.30
58373;BME280;44177;43.356;27.672;2023-01-10T01:53:43;97699.25;;;10.52;63.32
58373;BME280;44177;43.356;27.672;2023-01-10T01:58:59;97697.31;;;10.53;63.55
58373;BME280;44177;43.356;27.672;2023-01-10T02:01:27;97686.75;;;10.51;63.26
58373;BME280;44177;43.356;27.672;2023-01-10T02:04:00;97684.47;;;10.53;63.09
58373;BME280;44177;43.356;27.672;2023-01-10T02:06:27;97685.25;;;10.54;63.60
58373;BME280;44177;43.356;27.672;2023-01-10T02:09:08;97696.16;;;10.54;63.40
58373;BME280;44177;43.356;27.672;2023-01-10T02:11:36;97691.88;;;10.53;63.34
58373;BME280;44177;43.356;27.672;2023-01-10T02:14:04;97683.94;;;10.48;63.36
58373;BME280;44177;43.356;27.672;2023-01-10T02:16:30;97675.44;;;10.49;63.36
58373;BME280;44177;43.356;27.672;2023-01-10T02:18:56;97682.09;;;10.52;63.25
58373;BME280;44177;43.356;27.672;2023-01-10T02:26:45;97694.59;;;10.53;63.17
58373;BME280;44177;43.356;27.672;2023-01-10T02:29:28;97677.41;;;10.52;63.30
58373;BME280;44177;43.356;27.672;2023-01-10T02:40:20;97680.50;;;10.51;63.39
58373;BME280;44177;43.356;27.672;2023-01-10T02:43:06;97669.59;;;10.51;63.37
58373;BME280;44177;43.356;27.672;2023-01-10T02:45:47;97669.59;;;10.51;63.39
58373;BME280;44177;43.356;27.672;2023-01-10T02:48:15;97668.81;;;10.50;63.52
58373;BME280;44177;43.356;27.672;2023-01-10T02:50:43;97668.81;;;10.50;63.26
58373;BME280;44177;43.356;27.672;2023-01-10T02:53:14;97664.94;;;10.51;63.57
58373;BME280;44177;43.356;27.672;2023-01-10T02:58:58;97666.88;;;10.51;63.50
58373;BME280;44177;43.356;27.672;2023-01-10T03:01:53;97676.22;;;10.50;63.59
58373;BME280;44177;43.356;27.672;2023-01-10T03:07:16;97676.97;;;10.50;63.21
58373;BME280;44177;43.356;27.672;2023-01-10T03:14:59;97660.56;;;10.47;63.48
58373;BME280;44177;43.356;27.672;2023-01-10T03:17:29;97659.84;;;10.50;63.36
58373;BME280;44177;43.356;27.672;2023-01-10T03:20:01;97661.78;;;10.49;63.10
58373;BME280;44177;43.356;27.672;2023-01-10T03:22:29;97657.13;;;10.50;63.17
58373;BME280;44177;43.356;27.672;2023-01-10T03:24:57;97658.69;;;10.51;63.07
58373;BME280;44177;43.356;27.672;2023-01-10T03:27:47;97664.16;;;10.51;63.11
58373;BME280;44177;43.356;27.672;2023-01-10T03:30:26;97663.34;;;10.50;63.60
58373;BME280;44177;43.356;27.672;2023-01-10T03:32:54;97664.16;;;10.51;63.47
58373;BME280;44177;43.356;27.672;2023-01-10T03:35:24;97672.34;;;10.51;63.51
58373;BME280;44177;43.356;27.672;2023-01-10T03:37:59;97670.75;;;10.50;63.12
58373;BME280;44177;43.356;27.672;2023-01-10T03:43:07;97675.06;;;10.51;63.53
58373;BME280;44177;43.356;27.672;2023-01-10T03:46:00;97674.25;;;10.50;63.18
58373;BME280;44177;43.356;27.672;2023-01-10T03:48:29;97665.28;;;10.50;63.41
58373;BME280;44177;43.356;27.672;2023-01-10T03:50:58;97672.34;;;10.51;63.37
58373;BME280;44177;43.356;27.672;2023-01-10T03:53:25;97668.81;;;10.50;63.34
58373;BME280;44177;43.356;27.672;2023-01-10T03:55:50;97670.38;;;10.51;63.24
58373;BME280;44177;43.356;27.672;2023-01-10T03:58:16;97660.28;;;10.52;63.09
58373;BME280;44177;43.356;27.672;2023-01-10T04:00:46;97663.00;;;10.52;63.42
58373;BME280;44177;43.356;27.672;2023-01-10T04:03:12;97652.81;;;10.49;63.07
58373;BME280;44177;43.356;27.672;2023-01-10T04:05:37;97654.81;;;10.52;62.81
58373;BME280;44177;43.356;27.672;2023-01-10T04:08:02;97641.19;;;10.52;63.25
58373;BME280;44177;43.356;27.672;2023-01-10T04:10:28;97643.91;;;10.52;62.96
58373;BME280;44177;43.356;27.672;2023-01-10T04:12:54;97622.09;;;10.52;62.88
58373;BME280;44177;43.356;27.672;2023-01-10T04:15:23;97622.09;;;10.52;63.34
58373;BME280;44177;43.356;27.672;2023-01-10T04:17:48;97620.16;;;10.52;62.98
58373;BME280;44177;43.356;27.672;2023-01-10T04:20:14;97609.63;;;10.51;63.39
58373;BME280;44177;43.356;27.672;2023-01-10T04:22:39;97598.69;;;10.51;62.93
58373;BME280;44177;43.356;27.672;2023-01-10T04:25:05;97590.91;;;10.49;63.17
58373;BME280;44177;43.356;27.672;2023-01-10T04:27:31;97597.91;;;10.50;63.13
58373;BME280;44177;43.356;27.672;2023-01-10T04:29:56;97591.31;;;10.51;63.32
58373;BME280;44177;43.356;27.672;2023-01-10T04:32:22;97593.25;;;10.51;63.03
58373;BME280;44177;43.356;27.672;2023-01-10T04:34:47;97595.97;;;10.51;63.19
58373;BME280;44177;43.356;27.672;2023-01-10T04:37:12;97594.84;;;10.52;63.23
58373;BME280;44177;43.356;27.672;2023-01-10T04:39:38;97598.69;;;10.51;63.26
58373;BME280;44177;43.356;27.672;2023-01-10T04:42:03;97598.69;;;10.51;63.27
58373;BME280;44177;43.356;27.672;2023-01-10T04:44:29;97599.47;;;10.51;63.19
58373;BME280;44177;43.356;27.672;2023-01-10T04:46:55;97603.34;;;10.50;63.10
58373;BME280;44177;43.356;27.672;2023-01-10T04:49:20;97606.09;;;10.50;63.46
58373;BME280;44177;43.356;27.672;2023-01-10T04:51:46;97612.72;;;10.49;63.10
58373;BME280;44177;43.356;27.672;2023-01-10T04:54:11;97609.19;;;10.49;63.12
58373;BME280;44177;43.356;27.672;2023-01-10T04:56:37;97618.94;;;10.50;63.37
58373;BME280;44177;43.356;27.672;2023-01-10T04:59:02;97619.72;;;10.50;63.34
58373;BME280;44177;43.356;27.672;2023-01-10T05:01:30;97613.47;;;10.50;63.42
58373;BME280;44177;43.356;27.672;2023-01-10T05:03:56;97615.06;;;10.51;63.17
58373;BME280;44177;43.356;27.672;2023-01-10T05:06:22;97608.03;;;10.50;63.38
58373;BME280;44177;43.356;27.672;2023-01-10T05:08:48;97608.03;;;10.50;63.09
58373;BME280;44177;43.356;27.672;2023-01-10T05:11:14;97608.75;;;10.47;63.35
58373;BME280;44177;43.356;27.672;2023-01-10T05:13:40;97615.06;;;10.51;63.35
58373;BME280;44177;43.356;27.672;2023-01-10T05:16:06;97608.81;;;10.50;63.25
58373;BME280;44177;43.356;27.672;2023-01-10T05:18:31;97608.03;;;10.50;63.35
58373;BME280;44177;43.356;27.672;2023-01-10T05:21:06;97609.63;;;10.51;63.27
58373;BME280;44177;43.356;27.672;2023-01-10T05:23:32;97597.91;;;10.50;63.19
58373;BME280;44177;43.356;27.672;2023-01-10T05:26:05;97595.16;;;10.50;62.98
58373;BME280;44177;43.356;27.672;2023-01-10T05:28:31;97591.66;;;10.50;63.26
58373;BME280;44177;43.356;27.672;2023-01-10T05:30:56;97597.13;;;10.50;63.30
58373;BME280;44177;43.356;27.672;2023-01-10T05:33:22;97602.56;;;10.50;62.97
58373;BME280;44177;43.356;27.672;2023-01-10T05:35:47;97585.44;;;10.49;63.26
58373;BME280;44177;43.356;27.672;2023-01-10T05:38:12;97582.34;;;10.51;63.11
58373;BME280;44177;43.356;27.672;2023-01-10T05:40:38;97586.22;;;10.50;63.03
58373;BME280;44177;43.356;27.672;2023-01-10T05:43:03;97591.66;;;10.50;63.32
58373;BME280;44177;43.356;27.672;2023-01-10T05:45:29;97592.44;;;10.50;63.50
58373;BME280;44177;43.356;27.672;2023-01-10T05:47:54;97593.63;;;10.49;63.26
58373;BME280;44177;43.356;27.672;2023-01-10T05:50:20;97586.53;;;10.45;63.34
58373;BME280;44177;43.356;27.672;2023-01-10T05:52:45;97585.44;;;10.49;63.28
58373;BME280;44177;43.356;27.672;2023-01-10T05:55:11;97581.47;;;10.47;63.22
58373;BME280;44177;43.356;27.672;2023-01-10T05:57:36;97587.38;;;10.49;63.07
58373;BME280;44177;43.356;27.672;2023-01-10T06:00:03;97595.53;;;10.49;63.23
58373;BME280;44177;43.356;27.672;2023-01-10T06:02:31;97590.09;;;10.49;63.04
58373;BME280;44177;43.356;27.672;2023-01-10T06:04:56;97588.50;;;10.48;63.21
58373;BME280;44177;43.356;27.672;2023-01-10T06:07:22;97583.06;;;10.48;63.29
58373;BME280;44177;43.356;27.672;2023-01-10T06:09:47;97598.28;;;10.49;63.27
58373;BME280;44177;43.356;27.672;2023-01-10T06:12:15;97599.41;;;10.48;63.10
58373;BME280;44177;43.356;27.672;2023-01-10T06:14:42;97591.59;;;10.46;63.14
58373;BME280;44177;43.356;27.672;2023-01-10T06:17:08;97599.41;;;10.48;63.50
58373;BME280;44177;43.356;27.672;2023-01-10T06:19:34;97602.13;;;10.48;63.02
58373;BME280;44177;43.356;27.672;2023-01-10T06:22:00;97608.75;;;10.47;63.28
58373;BME280;44177;43.356;27.672;2023-01-10T06:24:25;97615.78;;;10.48;63.23
58373;BME280;44177;43.356;27.672;2023-01-10T06:26:51;97610.19;;;10.40;63.26
58373;BME280;44177;43.356;27.672;2023-01-10T06:29:16;97617.72;;;10.47;63.31
58373;BME280;44177;43.356;27.672;2023-01-10T06:31:41;97621.22;;;10.48;63.15
58373;BME280;44177;43.356;27.672;2023-01-10T06:34:07;97615.78;;;10.48;63.05
58373;BME280;44177;43.356;27.672;2023-01-10T06:36:32;97617.34;;;10.49;63.09
58373;BME280;44177;43.356;27.672;2023-01-10T06:38:58;97610.31;;;10.48;63.25
58373;BME280;44177;43.356;27.672;2023-01-10T06:41:23;97607.59;;;10.48;63.00
58373;BME280;44177;43.356;27.672;2023-01-10T06:43:49;97604.09;;;10.47;62.91
58373;BME280;44177;43.356;27.672;2023-01-10T06:46:16;97611.47;;;10.47;63.24
58373;BME280;44177;43.356;27.672;2023-01-10T06:48:44;97595.47;;;10.45;63.12
58373;BME280;44177;43.356;27.672;2023-01-10T06:51:11;97599.78;;;10.46;63.50
58373;BME280;44177;43.356;27.672;2023-01-10T06:53:36;97611.47;;;10.47;63.41
58373;BME280;44177;43.356;27.672;2023-01-10T06:56:02;97605.53;;;10.41;63.09
58373;BME280;44177;43.356;27.672;2023-01-10T06:58:30;97611.84;;;10.45;63.40
58373;BME280;44177;43.356;27.672;2023-01-10T07:00:56;97612.19;;;10.43;63.18
58373;BME280;44177;43.356;27.672;2023-01-10T07:03:21;97622.75;;;10.45;63.30
58373;BME280;44177;43.356;27.672;2023-01-10T07:05:47;97606.38;;;10.45;63.33
58373;BME280;44177;43.356;27.672;2023-01-10T07:08:13;97622.75;;;10.45;63.12
58373;BME280;44177;43.356;27.672;2023-01-10T07:10:40;97619.25;;;10.45;63.38
58373;BME280;44177;43.356;27.672;2023-01-10T07:13:06;97624.69;;;10.45;63.24
58373;BME280;44177;43.356;27.672;2023-01-10T07:15:31;97617.28;;;10.45;63.22
58373;BME280;44177;43.356;27.672;2023-01-10T07:17:57;97615.72;;;10.44;63.39
58373;BME280;44177;43.356;27.672;2023-01-10T07:20:22;97626.53;;;10.40;63.22
58373;BME280;44177;43.356;27.672;2023-01-10T07:22:56;97612.19;;;10.43;63.39
58373;BME280;44177;43.356;27.672;2023-01-10T07:25:22;97625.47;;;10.45;63.36
58373;BME280;44177;43.356;27.672;2023-01-10T07:27:48;97615.72;;;10.44;63.10
58373;BME280;44177;43.356;27.672;2023-01-10T07:30:13;97609.66;;;10.35;63.38
58373;BME280;44177;43.356;27.672;2023-01-10T07:32:39;97625.84;;;10.43;63.07
58373;BME280;44177;43.356;27.672;2023-01-10T07:35:05;97619.56;;;10.43;63.16
58373;BME280;44177;43.356;27.672;2023-01-10T07:37:30;97609.31;;;10.36;63.16
58373;BME280;44177;43.356;27.672;2023-01-10T07:39:55;97625.84;;;10.43;63.32
58373;BME280;44177;43.356;27.672;2023-01-10T07:42:21;97615.72;;;10.44;63.10
58373;BME280;44177;43.356;27.672;2023-01-10T07:44:47;97618.81;;;10.42;63.29
58373;BME280;44177;43.356;27.672;2023-01-10T07:47:12;97620.38;;;10.43;63.07
58373;BME280;44177;43.356;27.672;2023-01-10T07:49:37;97604.03;;;10.43;63.26
58373;BME280;44177;43.356;27.672;2023-01-10T07:52:03;97611.84;;;10.45;63.31
58373;BME280;44177;43.356;27.672;2023-01-10T07:54:32;97612.63;;;10.46;63.28
58373;BME280;44177;43.356;27.672;2023-01-10T07:56:57;97619.66;;;10.47;63.13
58373;BME280;44177;43.356;27.672;2023-01-10T07:59:22;97624.75;;;10.48;62.94
58373;BME280;44177;43.356;27.672;2023-01-10T08:01:48;97637.59;;;10.48;63.10
58373;BME280;44177;43.356;27.672;2023-01-10T08:04:13;97626.69;;;10.48;63.20
58373;BME280;44177;43.356;27.672;2023-01-10T08:06:39;97632.13;;;10.48;62.90
58373;BME280;44177;43.356;27.672;2023-01-10T08:09:04;97622.75;;;10.45;63.00
58373;BME280;44177;43.356;27.672;2023-01-10T08:11:30;97643.03;;;10.48;62.87
58373;BME280;44177;43.356;27.672;2023-01-10T08:13:56;97634.47;;;10.46;63.00
58373;BME280;44177;43.356;27.672;2023-01-10T08:16:21;97643.03;;;10.48;63.17
58373;BME280;44177;43.356;27.672;2023-01-10T08:18:47;97640.31;;;10.48;62.92
58373;BME280;44177;43.356;27.672;2023-01-10T08:21:12;97657.81;;;10.47;62.89
58373;BME280;44177;43.356;27.672;2023-01-10T08:23:38;97654.75;;;10.48;63.18
58373;BME280;44177;43.356;27.672;2023-01-10T08:26:04;97661.00;;;10.49;63.13
58373;BME280;44177;43.356;27.672;2023-01-10T08:28:30;97659.84;;;10.50;63.06
58373;BME280;44177;43.356;27.672;2023-01-10T08:30:56;97665.28;;;10.50;62.83
58373;BME280;44177;43.356;27.672;2023-01-10T08:33:23;97659.41;;;10.48;63.06
58373;BME280;44177;43.356;27.672;2023-01-10T08:35:48;97653.94;;;10.48;62.81
58373;BME280;44177;43.356;27.672;2023-01-10T08:38:14;97652.38;;;10.47;63.00
58373;BME280;44177;43.356;27.672;2023-01-10T08:40:40;97646.50;;;10.45;63.01
58373;BME280;44177;43.356;27.672;2023-01-10T08:43:08;97645.78;;;10.48;62.98
58373;BME280;44177;43.356;27.672;2023-01-10T08:45:35;97650.00;;;10.45;63.15
58373;BME280;44177;43.356;27.672;2023-01-10T08:48:02;97648.09;;;10.46;62.86
58373;BME280;44177;43.356;27.672;2023-01-10T08:50:27;97653.94;;;10.48;62.92
58373;BME280;44177;43.356;27.672;2023-01-10T08:52:53;97653.94;;;10.48;63.04
58373;BME280;44177;43.356;27.672;2023-01-10T08:55:19;97643.03;;;10.48;62.80
58373;BME280;44177;43.356;27.672;2023-01-10T08:57:44;97646.22;;;10.50;62.98
58373;BME280;44177;43.356;27.672;2023-01-10T09:00:10;97624.41;;;10.50;63.02
58373;BME280;44177;43.356;27.672;2023-01-10T09:02:39;97633.78;;;10.52;62.71
58373;BME280;44177;43.356;27.672;2023-01-10T09:05:05;97633.00;;;10.52;62.71
58373;BME280;44177;43.356;27.672;2023-01-10T09:07:31;97627.56;;;10.52;62.83
58373;BME280;44177;43.356;27.672;2023-01-10T09:09:56;97617.44;;;10.52;62.82
58373;BME280;44177;43.356;27.672;2023-01-10T09:12:21;97627.97;;;10.54;62.83
58373;BME280;44177;43.356;27.672;2023-01-10T09:15:06;97623.31;;;10.54;62.90
58373;BME280;44177;43.356;27.672;2023-01-10T09:17:31;97621.38;;;10.55;62.87
58373;BME280;44177;43.356;27.672;2023-01-10T09:19:57;97627.25;;;10.57;62.72
58373;BME280;44177;43.356;27.672;2023-01-10T09:22:22;97620.97;;;10.53;62.79
58373;BME280;44177;43.356;27.672;2023-01-10T09:24:48;97620.66;;;10.58;62.72
58373;BME280;44177;43.356;27.672;2023-01-10T09:27:13;97615.91;;;10.55;62.75
58373;BME280;44177;43.356;27.672;2023-01-10T09:29:39;97609.09;;;10.65;62.42
58373;BME280;44177;43.356;27.672;2023-01-10T09:32:04;97606.81;;;10.90;61.64
58373;BME280;44177;43.356;27.672;2023-01-10T09:34:30;97610.09;;;11.22;61.16
58373;BME280;44177;43.356;27.672;2023-01-10T09:36:55;97610.59;;;11.55;60.06
58373;BME280;44177;43.356;27.672;2023-01-10T09:39:21;97601.47;;;11.71;59.29
58373;BME280;44177;43.356;27.672;2023-01-10T09:47:40;97596.97;;;11.32;60.03
58373;BME280;44177;43.356;27.672;2023-01-10T09:50:38;97574.47;;;11.38;59.82
58373;BME280;44177;43.356;27.672;2023-01-10T09:53:20;97573.72;;;11.42;59.71
58373;BME280;44177;43.356;27.672;2023-01-10T09:55:52;97567.41;;;11.37;59.83
58373;BME280;44177;43.356;27.672;2023-01-10T09:58:19;97565.91;;;11.40;60.07
58373;BME280;44177;43.356;27.672;2023-01-10T10:00:50;97571.09;;;11.49;59.57
58373;BME280;44177;43.356;27.672;2023-01-10T10:05:50;97563.91;;;11.64;59.15
58373;BME280;44177;43.356;27.672;2023-01-10T10:08:17;97568.94;;;11.62;59.54
58373;BME280;44177;43.356;27.672;2023-01-10T10:13:46;97562.69;;;11.34;59.82
58373;BME280;44177;43.356;27.672;2023-01-10T10:19:05;97565.75;;;11.29;59.87
58373;BME280;44177;43.356;27.672;2023-01-10T10:27:23;97563.44;;;11.31;60.02
58373;BME280;44177;43.356;27.672;2023-01-10T10:35:04;97540.94;;;11.42;59.76
58373;BME280;44177;43.356;27.672;2023-01-10T10:37:39;97534.44;;;11.50;59.71
58373;BME280;44177;43.356;27.672;2023-01-10T10:42:45;97531.94;;;11.68;59.01
58373;BME280;44177;43.356;27.672;2023-01-10T10:47:58;97528.94;;;11.77;58.64
58373;BME280;44177;43.356;27.672;2023-01-10T10:52:53;97513.22;;;11.70;58.94
58373;BME280;44177;43.356;27.672;2023-01-10T10:55:25;97508.47;;;11.63;58.81
58373;BME280;44177;43.356;27.672;2023-01-10T10:57:52;97515.72;;;11.52;59.45
58373;BME280;44177;43.356;27.672;2023-01-10T11:00:19;97513.34;;;11.47;59.41
58373;BME280;44177;43.356;27.672;2023-01-10T11:02:53;97511.28;;;11.40;59.61
58373;BME280;44177;43.356;27.672;2023-01-10T11:05:31;97511.94;;;11.33;59.80
58373;BME280;44177;43.356;27.672;2023-01-10T11:08:00;97511.13;;;11.29;60.02
58373;BME280;44177;43.356;27.672;2023-01-10T11:10:31;97510.28;;;11.25;60.03
58373;BME280;44177;43.356;27.672;2023-01-10T11:13:33;97506.72;;;11.21;60.17
58373;BME280;44177;43.356;27.672;2023-01-10T11:16:04;97519.50;;;11.17;60.37
58373;BME280;44177;43.356;27.672;2023-01-10T11:18:31;97500.34;;;11.13;60.30
58373;BME280;44177;43.356;27.672;2023-01-10T11:20:59;97498.38;;;11.10;60.65
58373;BME280;44177;43.356;27.672;2023-01-10T11:23:41;97499.91;;;11.08;60.84
58373;BME280;44177;43.356;27.672;2023-01-10T11:26:21;97488.13;;;11.03;60.82
58373;BME280;44177;43.356;27.672;2023-01-10T11:29:02;97482.22;;;11.01;61.04
58373;BME280;44177;43.356;27.672;2023-01-10T11:31:28;97486.88;;;10.97;61.02
58373;BME280;44177;43.356;27.672;2023-01-10T11:33:55;97491.91;;;10.95;61.16
58373;BME280;44177;43.356;27.672;2023-01-10T11:36:21;97510.66;;;10.97;61.16
58373;BME280;44177;43.356;27.672;2023-01-10T11:39:00;97511.38;;;10.94;61.24
58373;BME280;44177;43.356;27.672;2023-01-10T11:41:27;97501.97;;;10.91;61.33
58373;BME280;44177;43.356;27.672;2023-01-10T11:44:22;97512.09;;;10.90;61.46
58373;BME280;44177;43.356;27.672;2023-01-10T11:46:52;97515.97;;;10.89;61.29
58373;BME280;44177;43.356;27.672;2023-01-10T11:49:27;97512.84;;;10.87;61.50
58373;BME280;44177;43.356;27.672;2023-01-10T11:52:13;97514.75;;;10.87;61.39
58373;BME280;44177;43.356;27.672;2023-01-10T11:54:40;97522.53;;;10.85;61.51
58373;BME280;44177;43.356;27.672;2023-01-10T11:57:13;97511.53;;;10.81;61.55
58373;BME280;44177;43.356;27.672;2023-01-10T11:59:53;97498.28;;;10.80;61.83
58373;BME280;44177;43.356;27.672;2023-01-10T12:04:48;97504.88;;;10.79;61.77
58373;BME280;44177;43.356;27.672;2023-01-10T12:07:15;97499.44;;;10.79;61.83
58373;BME280;44177;43.356;27.672;2023-01-10T12:09:56;97492.38;;;10.78;61.83
58373;BME280;44177;43.356;27.672;2023-01-10T12:12:30;97486.94;;;10.78;61.70
58373;BME280;44177;43.356;27.672;2023-01-10T12:14:57;97485.72;;;10.75;62.06
58373;BME280;44177;43.356;27.672;2023-01-10T12:19:53;97487.69;;;10.74;61.94
58373;BME280;44177;43.356;27.672;2023-01-10T12:22:37;97487.69;;;10.74;61.95
58373;BME280;44177;43.356;27.672;2023-01-10T12:25:26;97479.06;;;10.72;62.14
58373;BME280;44177;43.356;27.672;2023-01-10T12:27:55;97476.34;;;10.72;62.10
58373;BME280;44177;43.356;27.672;2023-01-10T12:30:40;97463.06;;;10.71;62.18
58373;BME280;44177;43.356;27.672;2023-01-10T12:33:35;97470.44;;;10.70;62.00
58373;BME280;44177;43.356;27.672;2023-01-10T12:38:47;97481.75;;;10.69;62.33
58373;BME280;44177;43.356;27.672;2023-01-10T12:44:25;97472.34;;;10.66;62.39
58373;BME280;44177;43.356;27.672;2023-01-10T12:47:04;97483.19;;;10.63;62.53
58373;BME280;44177;43.356;27.672;2023-01-10T12:49:40;97470.34;;;10.63;62.36
58373;BME280;44177;43.356;27.672;2023-01-10T12:52:13;97468.75;;;10.62;62.55
58373;BME280;44177;43.356;27.672;2023-01-10T12:54:44;97474.22;;;10.62;62.50
58373;BME280;44177;43.356;27.672;2023-01-10T12:57:30;97474.22;;;10.62;62.65
58373;BME280;44177;43.356;27.672;2023-01-10T13:00:00;97484.34;;;10.62;62.51
58373;BME280;44177;43.356;27.672;2023-01-10T13:02:33;97477.31;;;10.61;62.47
58373;BME280;44177;43.356;27.672;2023-01-10T13:05:03;97480.03;;;10.61;62.64
58373;BME280;44177;43.356;27.672;2023-01-10T13:07:32;97483.13;;;10.59;62.29
58373;BME280;44177;43.356;27.672;2023-01-10T13:10:01;97482.78;;;10.61;62.38
58373;BME280;44177;43.356;27.672;2023-01-10T13:12:32;97487.44;;;10.60;62.70
58373;BME280;44177;43.356;27.672;2023-01-10T13:15:13;97486.66;;;10.59;62.43
58373;BME280;44177;43.356;27.672;2023-01-10T13:17:53;97499.50;;;10.59;62.49
58373;BME280;44177;43.356;27.672;2023-01-10T13:23:20;97490.53;;;10.58;62.50
58373;BME280;44177;43.356;27.672;2023-01-10T13:25:55;97499.06;;;10.57;62.74
58373;BME280;44177;43.356;27.672;2023-01-10T13:28:26;97504.53;;;10.57;62.70
58373;BME280;44177;43.356;27.672;2023-01-10T13:31:03;97500.22;;;10.56;62.69
58373;BME280;44177;43.356;27.672;2023-01-10T13:33:32;97499.06;;;10.57;62.56
58373;BME280;44177;43.356;27.672;2023-01-10T13:36:10;97502.94;;;10.56;62.79
58373;BME280;44177;43.356;27.672;2023-01-10T13:38:44;97502.16;;;10.55;62.64
58373;BME280;44177;43.356;27.672;2023-01-10T13:41:12;97496.72;;;10.55;62.66
58373;BME280;44177;43.356;27.672;2023-01-10T13:44:11;97513.41;;;10.54;62.54
58373;BME280;44177;43.356;27.672;2023-01-10T13:46:40;97514.59;;;10.53;62.62
58373;BME280;44177;43.356;27.672;2023-01-10T13:51:35;97506.41;;;10.53;62.76
58373;BME280;44177;43.356;27.672;2023-01-10T13:54:24;97521.19;;;10.52;62.89
58373;BME280;44177;43.356;27.672;2023-01-10T13:56:50;97533.69;;;10.53;62.76
58373;BME280;44177;43.356;27.672;2023-01-10T14:02:14;97540.28;;;10.52;62.68
58373;BME280;44177;43.356;27.672;2023-01-10T14:04:56;97536.75;;;10.51;62.91
58373;BME280;44177;43.356;27.672;2023-01-10T14:07:45;97549.63;;;10.51;62.91
58373;BME280;44177;43.356;27.672;2023-01-10T14:10:26;97545.31;;;10.50;62.54
58373;BME280;44177;43.356;27.672;2023-01-10T14:12:59;97553.50;;;10.50;62.85
58373;BME280;44177;43.356;27.672;2023-01-10T14:15:38;97553.50;;;10.50;62.98
58373;BME280;44177;43.356;27.672;2023-01-10T14:18:34;97578.03;;;10.50;62.80
58373;BME280;44177;43.356;27.672;2023-01-10T14:21:08;97577.25;;;10.49;62.79
58373;BME280;44177;43.356;27.672;2023-01-10T14:23:47;97567.91;;;10.50;62.72
58373;BME280;44177;43.356;27.672;2023-01-10T14:26:26;97573.72;;;10.49;62.82